createdAt,value
2023-04-17T00:01:18.550Z,4.87
2023-04-17T00:03:47.258Z,3.70
2023-04-17T00:06:16.379Z,5.00
2023-04-17T00:08:44.576Z,5.07
2023-04-17T00:11:12.598Z,6.17
2023-04-17T00:13:44.485Z,3.90
2023-04-17T00:16:13.771Z,5.00
2023-04-17T00:18:43.202Z,3.80
2023-04-17T00:21:11.510Z,4.87
2023-04-17T00:23:39.580Z,3.73
2023-04-17T00:26:07.574Z,3.37
2023-04-17T00:28:35.561Z,4.83
2023-04-17T00:31:04.590Z,2.87
2023-04-17T00:33:33.412Z,3.47
2023-04-17T00:36:02.781Z,3.67
2023-04-17T00:38:30.823Z,4.33
2023-04-17T00:40:58.842Z,4.03
2023-04-17T00:43:27.363Z,4.40
2023-04-17T00:45:55.654Z,2.83
2023-04-17T00:48:24.482Z,3.90
2023-04-17T00:50:53.842Z,2.73
2023-04-17T00:53:23.623Z,4.40
2023-04-17T00:55:53.084Z,3.13
2023-04-17T00:58:21.181Z,5.60
2023-04-17T01:00:50.001Z,4.03
2023-04-17T01:03:18.305Z,6.47
2023-04-17T01:05:50.630Z,3.03
2023-04-17T01:08:19.042Z,2.90
2023-04-17T01:10:48.409Z,3.70
2023-04-17T01:13:16.424Z,4.87
2023-04-17T01:15:44.791Z,5.30
2023-04-17T01:18:12.921Z,3.53
2023-04-17T01:20:41.056Z,2.90
2023-04-17T01:23:09.372Z,3.43
2023-04-17T01:25:38.866Z,3.20
2023-04-17T01:28:06.864Z,2.97
2023-04-17T01:30:35.337Z,3.73
2023-04-17T01:33:03.487Z,4.77
2023-04-17T01:35:31.495Z,3.37
2023-04-17T01:37:59.514Z,3.07
2023-04-17T01:40:27.507Z,4.20
2023-04-17T01:42:56.872Z,4.10
2023-04-17T01:45:24.860Z,3.43
2023-04-17T01:47:53.157Z,4.07
2023-04-17T01:50:21.336Z,2.90
2023-04-17T01:52:49.353Z,3.20
2023-04-17T01:55:17.373Z,3.63
2023-04-17T01:57:45.366Z,3.67
2023-04-17T02:00:15.607Z,2.93
2023-04-17T02:02:43.778Z,2.80
2023-04-17T02:05:11.886Z,2.70
2023-04-17T02:07:39.859Z,3.37
2023-04-17T02:10:08.962Z,3.80
2023-04-17T02:12:36.948Z,4.07
2023-04-17T02:15:05.398Z,4.47
2023-04-17T02:17:34.853Z,3.13
2023-04-17T02:20:06.800Z,3.73
2023-04-17T02:22:34.791Z,2.43
2023-04-17T02:25:02.940Z,4.07
2023-04-17T02:27:31.154Z,4.03
2023-04-17T02:29:59.183Z,3.03
2023-04-17T02:32:28.458Z,3.43
2023-04-17T02:34:57.872Z,3.20
2023-04-17T02:37:25.868Z,3.07
2023-04-17T02:39:54.618Z,2.93
2023-04-17T02:42:22.741Z,3.43
2023-04-17T02:44:50.713Z,3.43
2023-04-17T02:47:18.707Z,4.50
2023-04-17T02:49:46.795Z,3.57
2023-04-17T02:52:16.237Z,3.87
2023-04-17T02:54:44.218Z,2.93
2023-04-17T02:57:12.236Z,3.50
2023-04-17T02:59:40.249Z,4.80
2023-04-17T03:02:08.269Z,5.13
2023-04-17T03:04:36.343Z,7.43
2023-04-17T03:07:04.493Z,4.23
2023-04-17T03:09:35.017Z,4.33
2023-04-17T03:12:03.075Z,4.27
2023-04-17T03:14:31.263Z,4.43
2023-04-17T03:16:59.605Z,4.17
2023-04-17T03:19:27.658Z,4.00
2023-04-17T03:21:55.659Z,5.57
2023-04-17T03:24:23.665Z,4.63
2023-04-17T03:26:53.014Z,3.97
2023-04-17T03:29:21.040Z,5.00
2023-04-17T03:31:49.060Z,4.53
2023-04-17T03:34:18.632Z,4.93
2023-04-17T03:36:46.636Z,4.07
2023-04-17T03:39:14.831Z,4.97
2023-04-17T03:41:42.838Z,4.37
2023-04-17T03:44:12.693Z,4.43
2023-04-17T03:46:40.757Z,4.70
2023-04-17T03:49:08.734Z,4.23
2023-04-17T03:51:36.755Z,5.83
2023-04-17T03:54:04.861Z,4.97
2023-04-17T03:56:32.958Z,4.90
2023-04-17T03:59:00.989Z,4.57
2023-04-17T04:01:30.376Z,4.67
2023-04-17T04:03:58.452Z,4.40
2023-04-17T04:06:29.873Z,4.77
2023-04-17T04:08:58.023Z,6.97
2023-04-17T04:11:26.070Z,6.27
2023-04-17T04:13:54.031Z,5.03
2023-04-17T04:16:22.570Z,5.17
2023-04-17T04:18:51.935Z,5.13
2023-04-17T04:21:19.929Z,5.20
2023-04-17T04:23:49.757Z,4.70
2023-04-17T04:26:17.998Z,4.60
2023-04-17T04:28:47.451Z,5.37
2023-04-17T04:31:18.679Z,7.10
2023-04-17T04:33:46.953Z,5.07
2023-04-17T04:36:20.280Z,3.77
2023-04-17T04:38:49.814Z,3.60
2023-04-17T04:41:19.994Z,3.57
2023-04-17T04:43:48.013Z,3.47
2023-04-17T04:46:16.044Z,5.13
2023-04-17T04:48:44.078Z,5.43
2023-04-17T04:51:12.496Z,4.77
2023-04-17T04:53:41.855Z,5.17
2023-04-17T04:56:09.847Z,4.30
2023-04-17T04:58:38.585Z,4.07
2023-04-17T05:01:07.733Z,4.43
2023-04-17T05:03:37.321Z,5.57
2023-04-17T05:06:05.935Z,4.97
2023-04-17T05:08:33.978Z,4.20
2023-04-17T05:11:03.610Z,3.37
2023-04-17T05:13:31.586Z,5.67
2023-04-17T05:16:01.500Z,5.80
2023-04-17T05:18:29.866Z,3.97
2023-04-17T05:20:57.863Z,7.67
2023-04-17T05:23:26.415Z,3.90
2023-04-17T05:25:54.410Z,5.97
2023-04-17T05:28:23.899Z,5.70
2023-04-17T05:30:52.234Z,5.53
2023-04-17T05:33:20.256Z,5.03
2023-04-17T05:35:48.219Z,5.23
2023-04-17T05:38:16.174Z,6.53
2023-04-17T05:40:44.327Z,6.23
2023-04-17T05:43:13.158Z,6.67
2023-04-17T05:45:42.564Z,5.87
2023-04-17T05:48:10.783Z,6.73
2023-04-17T05:50:38.822Z,8.17
2023-04-17T05:53:06.927Z,6.57
2023-04-17T05:55:34.973Z,5.73
2023-04-17T05:58:10.472Z,8.13
2023-04-17T06:00:52.481Z,7.87
2023-04-17T06:03:21.155Z,7.43
2023-04-17T06:05:49.435Z,12.57
2023-04-17T06:08:17.502Z,8.93
2023-04-17T06:10:46.598Z,7.97
2023-04-17T06:13:14.598Z,10.33
2023-04-17T06:15:42.595Z,9.57
2023-04-17T06:18:12.006Z,8.30
2023-04-17T06:20:40.244Z,8.03
2023-04-17T06:23:08.688Z,7.20
2023-04-17T06:25:36.772Z,7.83
2023-04-17T06:28:04.924Z,10.87
2023-04-17T06:30:32.899Z,7.37
2023-04-17T06:33:00.961Z,6.80
2023-04-17T06:35:30.758Z,6.17
2023-04-17T06:37:58.785Z,7.57
2023-04-17T06:40:26.902Z,6.27
2023-04-17T06:42:55.035Z,7.67
2023-04-17T06:45:23.032Z,8.83
2023-04-17T06:47:51.104Z,10.77
2023-04-17T06:50:19.578Z,9.37
2023-04-17T06:52:48.932Z,12.20
2023-04-17T06:55:17.000Z,9.23
2023-04-17T06:57:45.018Z,12.20
2023-04-17T07:00:14.318Z,9.57
2023-04-17T07:02:42.397Z,8.43
2023-04-17T07:05:11.142Z,6.87
2023-04-17T07:07:39.840Z,9.70
2023-04-17T07:10:10.138Z,10.43
2023-04-17T07:12:38.145Z,7.93
2023-04-17T07:15:06.741Z,8.53
2023-04-17T07:17:34.790Z,11.50
2023-04-17T07:20:02.800Z,7.50
2023-04-17T07:22:30.820Z,10.30
2023-04-17T07:24:58.833Z,6.40
2023-04-17T07:27:28.287Z,8.40
2023-04-17T07:29:56.472Z,9.13
2023-04-17T07:32:25.263Z,9.80
2023-04-17T07:34:53.502Z,9.07
2023-04-17T07:37:21.511Z,8.67
2023-04-17T07:39:51.046Z,7.33
2023-04-17T07:42:19.036Z,7.87
2023-04-17T07:44:49.957Z,7.17
2023-04-17T07:47:18.167Z,11.33
2023-04-17T07:49:48.907Z,10.53
2023-04-17T07:52:18.087Z,7.37
2023-04-17T07:54:46.193Z,8.23
2023-04-17T07:57:15.049Z,9.23
2023-04-17T07:59:43.129Z,8.50
2023-04-17T08:02:12.623Z,9.83
2023-04-17T08:04:41.712Z,10.60
2023-04-17T08:07:11.283Z,9.13
2023-04-17T08:09:40.248Z,7.10
2023-04-17T08:12:09.070Z,8.67
2023-04-17T08:14:37.130Z,9.10
2023-04-17T08:17:07.487Z,9.03
2023-04-17T08:19:37.085Z,9.73
2023-04-17T08:22:07.213Z,11.37
2023-04-17T08:24:35.233Z,9.87
2023-04-17T08:27:03.605Z,9.13
2023-04-17T08:29:31.614Z,8.63
2023-04-17T08:32:13.408Z,8.97
2023-04-17T08:34:43.418Z,9.20
2023-04-17T08:37:11.410Z,8.53
2023-04-17T08:39:39.399Z,10.37
2023-04-17T08:42:14.633Z,10.07
2023-04-17T08:44:45.897Z,11.43
2023-04-17T08:47:14.631Z,11.93
2023-04-17T08:49:45.953Z,12.07
2023-04-17T08:52:14.478Z,10.57
2023-04-17T08:54:42.469Z,10.83
2023-04-17T08:57:10.493Z,9.57
2023-04-17T08:59:38.515Z,10.27
2023-04-17T09:02:08.637Z,10.00
2023-04-17T09:04:42.089Z,10.23
2023-04-17T09:07:12.927Z,9.23
2023-04-17T09:09:51.645Z,10.37
2023-04-17T09:12:20.369Z,10.63
2023-04-17T09:14:48.444Z,9.07
2023-04-17T09:17:18.359Z,12.57
2023-04-17T09:20:09.800Z,12.97
2023-04-17T09:22:41.133Z,10.87
2023-04-17T09:25:18.053Z,9.97
2023-04-17T09:27:46.727Z,10.80
2023-04-17T09:30:15.392Z,10.47
2023-04-17T09:32:43.540Z,11.40
2023-04-17T09:35:12.085Z,9.00
2023-04-17T09:37:50.977Z,10.93
2023-04-17T09:40:20.424Z,11.93
2023-04-17T09:42:59.487Z,14.23
2023-04-17T09:45:33.243Z,14.87
2023-04-17T09:48:01.471Z,11.73
2023-04-17T09:50:29.796Z,18.40
2023-04-17T09:52:59.224Z,15.40
2023-04-17T09:55:29.886Z,14.77
2023-04-17T09:57:59.845Z,12.33
2023-04-17T10:00:29.301Z,13.10
2023-04-17T10:02:59.606Z,11.37
2023-04-17T10:05:31.558Z,11.33
2023-04-17T10:08:01.651Z,12.60
2023-04-17T10:10:33.347Z,11.30
2023-04-17T10:13:04.251Z,11.67
2023-04-17T10:15:33.794Z,10.97
2023-04-17T10:18:20.054Z,10.50
2023-04-17T10:20:48.658Z,13.73
2023-04-17T10:23:32.440Z,13.50
2023-04-17T10:26:46.053Z,15.77
2023-04-17T10:29:14.299Z,11.77
2023-04-17T10:32:15.472Z,12.40
2023-04-17T10:34:44.078Z,15.23
2023-04-17T10:37:15.252Z,13.63
2023-04-17T10:39:52.675Z,12.10
2023-04-17T10:42:22.256Z,13.37
2023-04-17T10:44:51.519Z,12.43
2023-04-17T10:47:22.273Z,14.13
2023-04-17T10:49:51.986Z,14.60
2023-04-17T10:52:44.700Z,18.87
2023-04-17T10:55:17.414Z,11.57
2023-04-17T10:57:57.358Z,14.87
2023-04-17T11:00:33.746Z,11.33
2023-04-17T11:03:02.544Z,14.47
2023-04-17T11:05:32.258Z,14.13
2023-04-17T11:08:00.650Z,15.23
2023-04-17T11:10:30.249Z,12.80
2023-04-17T11:12:58.228Z,12.17
2023-04-17T11:15:30.364Z,13.27
2023-04-17T11:17:59.498Z,12.13
2023-04-17T11:20:29.877Z,12.07
2023-04-17T11:22:58.228Z,11.07
2023-04-17T11:25:31.581Z,11.27
2023-04-17T11:28:01.151Z,11.70
2023-04-17T11:30:31.205Z,13.77
2023-04-17T11:33:00.499Z,13.23
2023-04-17T11:35:33.215Z,10.70
2023-04-17T11:38:08.786Z,14.83
2023-04-17T11:40:38.318Z,13.60
2023-04-17T11:43:09.941Z,7.03
2023-04-17T11:45:38.804Z,14.00
2023-04-17T11:48:07.174Z,11.50
2023-04-17T11:50:36.224Z,9.80
2023-04-17T11:53:05.037Z,8.63
2023-04-17T11:55:33.416Z,8.30
2023-04-17T11:58:06.421Z,8.53
2023-04-17T12:00:35.169Z,10.03
2023-04-17T12:03:04.989Z,8.67
2023-04-17T12:05:33.461Z,10.13
2023-04-17T12:08:03.000Z,10.83
2023-04-17T12:10:41.171Z,8.70
2023-04-17T12:13:11.174Z,9.30
2023-04-17T12:15:39.751Z,10.57
2023-04-17T12:18:09.258Z,8.73
2023-04-17T12:20:37.867Z,7.97
2023-04-17T12:23:07.068Z,12.00
2023-04-17T12:25:35.429Z,6.60
2023-04-17T12:28:04.977Z,8.33
2023-04-17T12:30:36.132Z,6.90
2023-04-17T12:33:06.709Z,10.67
2023-04-17T12:35:34.772Z,9.40
2023-04-17T12:38:02.755Z,7.50
2023-04-17T12:40:30.881Z,8.37
2023-04-17T12:42:59.144Z,9.93
2023-04-17T12:45:28.116Z,8.23
2023-04-17T12:47:57.913Z,9.77
2023-04-17T12:50:26.269Z,10.53
2023-04-17T12:52:54.365Z,9.67
2023-04-17T12:55:22.756Z,8.33
2023-04-17T12:57:50.804Z,9.57
2023-04-17T13:00:19.933Z,9.60
2023-04-17T13:02:48.216Z,10.27
2023-04-17T13:05:17.782Z,9.10
2023-04-17T13:07:46.294Z,8.33
2023-04-17T13:10:14.331Z,10.10
2023-04-17T13:12:42.977Z,11.07
2023-04-17T13:15:13.370Z,13.33
2023-04-17T13:17:41.542Z,10.70
2023-04-17T13:20:10.661Z,14.47
2023-04-17T13:22:40.422Z,12.07
2023-04-17T13:25:09.298Z,8.93
2023-04-17T13:27:38.223Z,11.17
2023-04-17T13:30:07.438Z,12.47
2023-04-17T13:32:35.810Z,12.87
2023-04-17T13:35:05.252Z,11.03
2023-04-17T13:37:33.284Z,13.47
2023-04-17T13:40:05.137Z,12.20
2023-04-17T13:42:33.400Z,21.77
2023-04-17T13:45:01.391Z,24.33
2023-04-17T13:47:29.522Z,19.07
2023-04-17T13:49:57.593Z,13.93
2023-04-17T13:52:25.643Z,12.17
2023-04-17T13:54:53.700Z,15.07
2023-04-17T13:57:23.174Z,12.07
2023-04-17T13:59:51.195Z,12.07
2023-04-17T14:02:19.550Z,12.33
2023-04-17T14:04:47.880Z,9.03
2023-04-17T14:07:16.097Z,10.33
2023-04-17T14:09:44.106Z,13.97
2023-04-17T14:12:12.330Z,13.43
2023-04-17T14:14:41.772Z,11.00
2023-04-17T14:17:09.854Z,11.80
2023-04-17T14:19:37.893Z,11.40
2023-04-17T14:22:05.963Z,15.63
2023-04-17T14:24:33.983Z,14.50
2023-04-17T14:27:02.748Z,13.27
2023-04-17T14:29:30.767Z,13.80
2023-04-17T14:32:00.199Z,12.60
2023-04-17T14:34:28.172Z,12.10
2023-04-17T14:36:58.001Z,13.43
2023-04-17T14:39:26.375Z,14.30
2023-04-17T14:41:54.387Z,10.40
2023-04-17T14:44:22.367Z,14.60
2023-04-17T14:46:50.553Z,12.13
2023-04-17T14:49:20.534Z,12.77
2023-04-17T14:51:48.654Z,14.07
2023-04-17T14:54:16.728Z,11.20
2023-04-17T14:56:44.782Z,11.30
2023-04-17T14:59:12.960Z,13.40
2023-04-17T15:01:41.138Z,11.47
2023-04-17T15:04:09.340Z,9.73
2023-04-17T15:06:39.293Z,10.53
2023-04-17T15:09:07.510Z,11.07
2023-04-17T15:11:36.268Z,10.80
2023-04-17T15:14:04.263Z,12.23
2023-04-17T15:16:32.302Z,10.87
2023-04-17T15:19:00.354Z,10.37
2023-04-17T15:21:28.399Z,12.40
2023-04-17T15:23:58.039Z,13.00
2023-04-17T15:26:27.306Z,12.43
2023-04-17T15:28:55.327Z,13.50
2023-04-17T15:31:23.558Z,14.53
2023-04-17T15:33:51.577Z,13.10
2023-04-17T15:36:19.710Z,14.97
2023-04-17T15:38:47.689Z,14.43
2023-04-17T15:41:17.093Z,15.43
2023-04-17T15:43:45.112Z,15.33
2023-04-17T15:46:13.255Z,16.50
2023-04-17T15:48:41.308Z,14.13
2023-04-17T15:51:09.456Z,13.80
2023-04-17T15:53:37.555Z,15.23
2023-04-17T15:56:06.821Z,12.90
2023-04-17T15:58:36.340Z,14.93
2023-04-17T16:01:04.443Z,12.10
2023-04-17T16:03:32.633Z,15.97
2023-04-17T16:06:00.857Z,12.83
2023-04-17T16:08:28.852Z,15.20
2023-04-17T16:10:56.908Z,15.97
2023-04-17T16:13:25.004Z,13.80
2023-04-17T16:15:54.403Z,15.33
2023-04-17T16:18:22.435Z,19.17
2023-04-17T16:20:50.544Z,15.73
2023-04-17T16:23:18.529Z,16.90
2023-04-17T16:25:46.511Z,15.73
2023-04-17T16:28:14.535Z,13.07
2023-04-17T16:30:42.557Z,13.20
2023-04-17T16:33:11.907Z,15.07
2023-04-17T16:35:40.468Z,13.90
2023-04-17T16:38:08.596Z,10.77
2023-04-17T16:40:36.602Z,12.57
2023-04-17T16:43:04.613Z,11.33
2023-04-17T16:45:32.598Z,11.97
2023-04-17T16:48:00.726Z,11.17
2023-04-17T16:50:30.223Z,12.40
2023-04-17T16:52:58.193Z,15.67
2023-04-17T16:55:26.419Z,13.07
2023-04-17T16:57:55.595Z,14.63
2023-04-17T17:00:23.901Z,12.73
2023-04-17T17:02:52.064Z,12.30
2023-04-17T17:05:20.193Z,13.53
2023-04-17T17:07:49.858Z,13.80
2023-04-17T17:10:17.933Z,15.13
2023-04-17T17:12:46.096Z,15.47
2023-04-17T17:15:14.082Z,13.23
2023-04-17T17:17:43.024Z,13.20
2023-04-17T17:20:11.705Z,13.20
2023-04-17T17:22:39.749Z,14.00
2023-04-17T17:25:10.069Z,13.30
2023-04-17T17:27:38.050Z,12.50
2023-04-17T17:30:06.957Z,15.00
2023-04-17T17:32:34.964Z,19.10
2023-04-17T17:35:02.954Z,16.80
2023-04-17T17:37:31.244Z,16.20
2023-04-17T17:39:59.232Z,18.33
2023-04-17T17:42:28.590Z,17.03
2023-04-17T17:44:56.751Z,18.83
2023-04-17T17:47:24.729Z,16.30
2023-04-17T17:49:52.877Z,17.77
2023-04-17T17:52:20.943Z,15.93
2023-04-17T17:54:48.951Z,16.43
2023-04-17T17:57:16.943Z,16.03
2023-04-17T17:59:46.384Z,18.97
2023-04-17T18:02:14.542Z,18.20
2023-04-17T18:04:42.747Z,16.57
2023-04-17T18:07:10.863Z,17.57
2023-04-17T18:09:38.879Z,17.53
2023-04-17T18:12:07.937Z,14.03
2023-04-17T18:14:36.786Z,14.27
2023-04-17T18:17:08.158Z,16.20
2023-04-17T18:19:40.735Z,15.13
2023-04-17T18:22:08.921Z,13.47
2023-04-17T18:24:36.955Z,13.73
2023-04-17T18:27:05.017Z,13.60
2023-04-17T18:29:34.540Z,14.60
2023-04-17T18:32:02.558Z,13.57
2023-04-17T18:34:31.998Z,13.97
2023-04-17T18:37:00.544Z,12.27
2023-04-17T18:39:28.580Z,12.20
2023-04-17T18:41:57.011Z,12.77
2023-04-17T18:44:25.062Z,12.03
2023-04-17T18:46:53.079Z,11.70
2023-04-17T18:49:21.092Z,10.03
2023-04-17T18:51:50.484Z,12.23
2023-04-17T18:54:19.364Z,12.20
2023-04-17T18:56:47.429Z,13.70
2023-04-17T18:59:15.813Z,14.37
2023-04-17T19:01:43.892Z,11.47
2023-04-17T19:04:12.094Z,10.60
2023-04-17T19:06:40.386Z,13.07
2023-04-17T19:09:09.745Z,12.23
2023-04-17T19:11:37.734Z,14.57
2023-04-17T19:14:05.727Z,13.40
2023-04-17T19:16:33.909Z,11.67
2023-04-17T19:19:02.088Z,13.17
2023-04-17T19:21:31.755Z,16.13
2023-04-17T19:23:59.799Z,13.90
2023-04-17T19:26:29.223Z,12.40
2023-04-17T19:28:58.159Z,11.93
2023-04-17T19:31:26.271Z,12.63
2023-04-17T19:33:57.241Z,13.67
2023-04-17T19:36:27.381Z,12.53
2023-04-17T19:38:55.870Z,13.53
2023-04-17T19:41:23.885Z,16.13
2023-04-17T19:43:54.124Z,14.20
2023-04-17T19:46:23.949Z,13.07
2023-04-17T19:48:52.452Z,14.63
2023-04-17T19:51:20.613Z,15.20
2023-04-17T19:53:48.906Z,15.73
2023-04-17T19:56:17.142Z,16.00
2023-04-17T19:58:45.346Z,15.33
2023-04-17T20:01:14.841Z,16.13
2023-04-17T20:03:45.409Z,17.83
2023-04-17T20:06:13.974Z,14.53
2023-04-17T20:08:42.018Z,16.10
2023-04-17T20:11:12.074Z,12.60
2023-04-17T20:13:40.395Z,14.83
2023-04-17T20:16:08.651Z,13.53
2023-04-17T20:18:38.178Z,15.47
2023-04-17T20:21:07.167Z,19.90
2023-04-17T20:23:35.343Z,15.50
2023-04-17T20:26:03.512Z,14.97
2023-04-17T20:28:31.669Z,16.33
2023-04-17T20:30:59.728Z,18.53
2023-04-17T20:33:27.816Z,19.03
2023-04-17T20:35:57.334Z,13.03
2023-04-17T20:38:25.680Z,17.20
2023-04-17T20:40:54.132Z,15.33
2023-04-17T20:43:22.222Z,15.57
2023-04-17T20:45:50.950Z,15.20
2023-04-17T20:48:20.513Z,15.37
2023-04-17T20:50:48.733Z,16.47
2023-04-17T20:53:18.336Z,14.87
2023-04-17T20:55:47.117Z,15.50
2023-04-17T20:58:15.253Z,16.13
2023-04-17T21:00:54.424Z,14.60
2023-04-17T21:03:30.142Z,16.37
2023-04-17T21:05:58.537Z,14.87
2023-04-17T21:08:28.026Z,15.53
2023-04-17T21:10:56.095Z,15.20
2023-04-17T21:13:24.737Z,15.83
2023-04-17T21:15:52.830Z,17.70
2023-04-17T21:18:20.881Z,15.67
2023-04-17T21:20:48.912Z,16.27
2023-04-17T21:23:16.961Z,15.07
2023-04-17T21:25:46.579Z,17.07
2023-04-17T21:28:14.597Z,14.13
2023-04-17T21:30:42.660Z,15.27
2023-04-17T21:33:10.673Z,13.37
2023-04-17T21:35:39.412Z,13.00
2023-04-17T21:38:07.486Z,15.33
2023-04-17T21:40:37.194Z,14.17
2023-04-17T21:43:06.683Z,13.13
2023-04-17T21:45:34.833Z,16.37
2023-04-17T21:48:03.348Z,13.93
2023-04-17T21:50:31.823Z,13.90
2023-04-17T21:52:59.812Z,15.33
2023-04-17T21:55:28.123Z,12.97
2023-04-17T21:57:56.111Z,14.40
2023-04-17T22:00:25.666Z,12.13
2023-04-17T22:02:54.056Z,12.93
2023-04-17T22:05:22.339Z,14.17
2023-04-17T22:07:54.964Z,14.70
2023-04-17T22:10:24.169Z,12.30
2023-04-17T22:12:52.306Z,12.27
2023-04-17T22:15:20.713Z,11.93
2023-04-17T22:17:50.658Z,14.37
2023-04-17T22:20:18.804Z,12.33
2023-04-17T22:22:47.615Z,11.63
2023-04-17T22:25:15.769Z,11.90
2023-04-17T22:27:43.841Z,11.40
2023-04-17T22:30:12.296Z,14.27
2023-04-17T22:32:40.449Z,12.00
2023-04-17T22:35:10.924Z,13.27
2023-04-17T22:37:38.961Z,12.57
2023-04-17T22:40:08.557Z,11.97
2023-04-17T22:42:36.576Z,15.17
2023-04-17T22:45:05.080Z,12.60
2023-04-17T22:47:33.150Z,11.27
2023-04-17T22:50:01.181Z,9.97
2023-04-17T22:52:30.640Z,11.37
2023-04-17T22:54:58.856Z,11.97
2023-04-17T22:57:26.889Z,10.60
2023-04-17T22:59:55.214Z,10.67
2023-04-17T23:02:23.332Z,11.83
2023-04-17T23:04:51.540Z,12.40
2023-04-17T23:07:19.588Z,12.27
2023-04-17T23:09:49.049Z,11.43
2023-04-17T23:12:17.062Z,12.30
2023-04-17T23:14:46.010Z,11.67
2023-04-17T23:17:14.035Z,11.97
2023-04-17T23:19:42.196Z,10.10
2023-04-17T23:22:10.793Z,11.07
2023-04-17T23:24:38.942Z,12.07
2023-04-17T23:27:08.368Z,9.67
2023-04-17T23:29:36.423Z,9.13
2023-04-17T23:32:04.636Z,10.03
2023-04-17T23:34:32.723Z,9.57
2023-04-17T23:37:02.057Z,10.87
2023-04-17T23:39:30.267Z,11.10
2023-04-17T23:42:00.596Z,10.67
2023-04-17T23:44:30.069Z,9.57
2023-04-17T23:46:58.360Z,11.80
2023-04-17T23:49:26.573Z,9.37
2023-04-17T23:51:54.605Z,9.77
2023-04-17T23:54:22.649Z,12.47
2023-04-17T23:56:50.687Z,10.77
2023-04-17T23:59:18.711Z,8.93
